createdAt,value
2023-08-29T00:02:24.221Z,4.78
2023-08-29T00:04:51.623Z,8.85
2023-08-29T00:07:19.393Z,6.15
2023-08-29T00:09:46.882Z,6.45
2023-08-29T00:12:14.202Z,5.25
2023-08-29T00:14:41.890Z,6.22
2023-08-29T00:17:11.997Z,7.63
2023-08-29T00:19:42.955Z,5.20
2023-08-29T00:22:12.177Z,8.40
2023-08-29T00:24:40.337Z,7.10
2023-08-29T00:27:07.655Z,6.50
2023-08-29T00:29:35.026Z,7.07
2023-08-29T00:32:02.325Z,6.03
2023-08-29T00:34:29.785Z,4.80
2023-08-29T00:36:57.469Z,6.75
2023-08-29T00:39:24.784Z,4.57
2023-08-29T00:41:52.573Z,5.72
2023-08-29T00:44:20.183Z,7.47
2023-08-29T00:46:47.676Z,7.32
2023-08-29T00:49:16.334Z,6.80
2023-08-29T00:51:43.678Z,5.65
2023-08-29T00:54:11.081Z,7.07
2023-08-29T00:56:39.752Z,6.88
2023-08-29T00:59:19.200Z,7.38
2023-08-29T01:01:50.762Z,8.73
2023-08-29T01:04:24.811Z,7.78
2023-08-29T01:07:02.656Z,5.55
2023-08-29T01:09:30.478Z,7.38
2023-08-29T01:12:10.699Z,4.90
2023-08-29T01:14:42.695Z,4.68
2023-08-29T01:17:20.490Z,7.18
2023-08-29T01:19:53.056Z,5.05
2023-08-29T01:22:24.587Z,6.07
2023-08-29T01:24:55.702Z,6.28
2023-08-29T01:27:22.992Z,10.43
2023-08-29T01:29:52.095Z,5.30
2023-08-29T01:32:20.509Z,8.00
2023-08-29T01:34:47.802Z,6.90
2023-08-29T01:37:15.188Z,7.20
2023-08-29T01:39:42.897Z,8.02
2023-08-29T01:42:13.518Z,6.60
2023-08-29T01:44:40.766Z,7.55
2023-08-29T01:47:08.123Z,8.32
2023-08-29T01:49:36.772Z,8.65
2023-08-29T01:52:04.134Z,8.70
2023-08-29T01:54:31.531Z,6.57
2023-08-29T01:57:00.606Z,9.80
2023-08-29T01:59:28.432Z,6.38
2023-08-29T02:01:58.791Z,7.65
2023-08-29T02:04:28.659Z,9.15
2023-08-29T02:07:01.486Z,8.60
2023-08-29T02:09:30.552Z,9.15
2023-08-29T02:11:58.332Z,7.68
2023-08-29T02:14:26.461Z,8.32
2023-08-29T02:16:53.777Z,5.97
2023-08-29T02:19:21.420Z,7.22
2023-08-29T02:21:48.796Z,8.05
2023-08-29T02:24:16.177Z,7.50
2023-08-29T02:26:43.437Z,8.13
2023-08-29T02:29:10.848Z,7.55
2023-08-29T02:31:38.865Z,6.90
2023-08-29T02:34:06.581Z,11.05
2023-08-29T02:36:33.892Z,9.15
2023-08-29T02:39:01.632Z,6.43
2023-08-29T02:41:28.901Z,7.18
2023-08-29T02:43:56.191Z,10.82
2023-08-29T02:46:24.427Z,9.00
2023-08-29T02:48:51.815Z,10.93
2023-08-29T02:51:19.625Z,8.35
2023-08-29T02:53:47.312Z,9.03
2023-08-29T02:56:14.657Z,9.88
2023-08-29T02:58:44.586Z,5.75
2023-08-29T03:01:14.026Z,5.93
2023-08-29T03:03:44.815Z,6.72
2023-08-29T03:06:13.162Z,5.80
2023-08-29T03:08:43.539Z,6.97
2023-08-29T03:11:14.651Z,5.47
2023-08-29T03:13:45.668Z,7.63
2023-08-29T03:16:17.360Z,5.90
2023-08-29T03:18:46.407Z,7.07
2023-08-29T03:21:13.750Z,6.82
2023-08-29T03:23:41.117Z,8.75
2023-08-29T03:26:11.249Z,7.55
2023-08-29T03:28:39.214Z,12.55
2023-08-29T03:31:13.880Z,11.35
2023-08-29T03:33:41.988Z,11.43
2023-08-29T03:36:09.387Z,8.93
2023-08-29T03:38:37.461Z,9.38
2023-08-29T03:41:05.906Z,13.18
2023-08-29T03:43:34.938Z,10.63
2023-08-29T03:46:03.716Z,14.88
2023-08-29T03:48:32.622Z,14.23
2023-08-29T03:51:03.678Z,11.13
2023-08-29T03:53:31.065Z,10.25
2023-08-29T03:56:01.508Z,9.60
2023-08-29T03:58:31.434Z,11.43
2023-08-29T04:00:59.602Z,10.23
2023-08-29T04:03:27.557Z,10.88
2023-08-29T04:05:55.273Z,9.68
2023-08-29T04:08:22.560Z,11.23
2023-08-29T04:10:50.086Z,14.68
2023-08-29T04:13:17.415Z,12.18
2023-08-29T04:15:45.234Z,9.68
2023-08-29T04:18:13.725Z,10.25
2023-08-29T04:20:41.028Z,11.45
2023-08-29T04:23:08.492Z,10.27
2023-08-29T04:25:39.918Z,9.65
2023-08-29T04:28:08.388Z,12.25
2023-08-29T04:30:39.991Z,10.90
2023-08-29T04:33:08.439Z,11.15
2023-08-29T04:35:36.552Z,11.60
2023-08-29T04:38:05.685Z,13.75
2023-08-29T04:40:34.440Z,10.75
2023-08-29T04:43:02.360Z,15.05
2023-08-29T04:45:29.699Z,11.73
2023-08-29T04:47:57.044Z,13.23
2023-08-29T04:50:26.610Z,13.23
2023-08-29T04:52:55.171Z,14.63
2023-08-29T04:55:23.036Z,12.98
2023-08-29T04:57:53.057Z,11.60
2023-08-29T05:00:20.979Z,11.70
2023-08-29T05:02:49.514Z,11.40
2023-08-29T05:07:47.936Z,10.20
2023-08-29T05:10:17.170Z,10.43
2023-08-29T05:12:45.227Z,11.95
2023-08-29T05:15:13.763Z,14.40
2023-08-29T05:17:41.539Z,10.25
2023-08-29T05:20:12.769Z,11.73
2023-08-29T05:22:40.900Z,8.38
2023-08-29T05:25:08.892Z,10.30
2023-08-29T05:27:36.280Z,11.35
2023-08-29T05:30:04.583Z,9.70
2023-08-29T05:32:32.735Z,8.50
2023-08-29T05:35:00.142Z,11.17
2023-08-29T05:37:28.102Z,9.73
2023-08-29T05:39:55.418Z,11.25
2023-08-29T05:42:22.752Z,10.70
2023-08-29T05:44:50.035Z,10.10
2023-08-29T05:47:17.318Z,13.73
2023-08-29T05:49:44.685Z,14.55
2023-08-29T05:52:11.971Z,10.30
2023-08-29T05:54:39.427Z,12.75
2023-08-29T05:57:06.760Z,14.00
2023-08-29T05:59:34.319Z,12.80
2023-08-29T06:02:01.657Z,11.63
2023-08-29T06:04:28.927Z,12.35
2023-08-29T06:06:56.204Z,12.02
2023-08-29T06:09:23.500Z,12.18
2023-08-29T06:11:50.926Z,17.35
2023-08-29T06:14:18.207Z,15.05
2023-08-29T06:16:45.628Z,24.60
2023-08-29T06:19:12.880Z,14.48
2023-08-29T06:21:40.230Z,14.20
2023-08-29T06:24:07.946Z,13.45
2023-08-29T06:26:35.251Z,15.27
2023-08-29T06:29:02.698Z,15.52
2023-08-29T06:31:30.017Z,14.93
2023-08-29T06:33:57.405Z,19.10
2023-08-29T06:36:24.714Z,13.73
2023-08-29T06:38:51.960Z,15.38
2023-08-29T06:41:19.267Z,17.27
2023-08-29T06:43:47.971Z,16.40
2023-08-29T06:46:15.492Z,19.02
2023-08-29T06:48:42.933Z,17.42
2023-08-29T06:51:10.779Z,15.52
2023-08-29T06:53:38.088Z,13.93
2023-08-29T06:56:05.575Z,14.30
2023-08-29T06:58:33.062Z,13.93
2023-08-29T07:01:00.554Z,18.45
2023-08-29T07:03:28.000Z,17.00
2023-08-29T07:05:56.110Z,15.25
2023-08-29T07:08:23.614Z,15.13
2023-08-29T07:10:50.989Z,16.98
2023-08-29T07:13:18.367Z,13.27
2023-08-29T07:15:45.700Z,12.32
2023-08-29T07:18:14.309Z,12.00
2023-08-29T07:20:41.798Z,13.65
2023-08-29T07:23:09.072Z,13.80
2023-08-29T07:25:40.451Z,12.32
2023-08-29T07:28:09.272Z,11.15
2023-08-29T07:30:37.972Z,10.30
2023-08-29T07:33:05.429Z,9.05
2023-08-29T07:35:32.760Z,9.55
2023-08-29T07:38:00.079Z,10.32
2023-08-29T07:40:27.626Z,13.02
2023-08-29T07:42:54.921Z,9.73
2023-08-29T07:45:22.236Z,7.70
2023-08-29T07:47:50.248Z,10.65
2023-08-29T07:50:17.784Z,12.10
2023-08-29T07:52:45.086Z,7.03
2023-08-29T07:55:12.480Z,7.00
2023-08-29T07:57:39.815Z,7.38
2023-08-29T08:00:10.911Z,6.88
2023-08-29T08:02:42.860Z,6.93
2023-08-29T08:05:14.587Z,6.20
2023-08-29T08:07:42.446Z,7.55
2023-08-29T08:10:10.341Z,6.32
2023-08-29T08:12:41.051Z,7.20
2023-08-29T08:15:09.200Z,9.85
2023-08-29T08:17:36.926Z,8.00
2023-08-29T08:20:09.596Z,9.23
2023-08-29T08:22:37.497Z,7.05
2023-08-29T08:25:05.431Z,8.60
2023-08-29T08:27:32.727Z,12.23
2023-08-29T08:30:01.019Z,9.73
2023-08-29T08:32:28.655Z,8.68
2023-08-29T08:34:57.047Z,9.27
2023-08-29T08:37:24.340Z,7.28
2023-08-29T08:39:51.710Z,7.57
2023-08-29T08:42:20.270Z,6.60
2023-08-29T08:44:47.630Z,6.35
2023-08-29T08:47:14.976Z,5.05
2023-08-29T08:49:42.917Z,7.03
2023-08-29T08:52:12.522Z,4.75
2023-08-29T08:54:40.479Z,3.67
2023-08-29T08:57:11.932Z,5.10
2023-08-29T08:59:43.701Z,5.63
2023-08-29T09:02:17.737Z,5.13
2023-08-29T09:04:45.887Z,4.10
2023-08-29T09:07:13.241Z,4.53
2023-08-29T09:09:42.337Z,5.38
2023-08-29T09:12:11.895Z,4.22
2023-08-29T09:14:43.774Z,5.57
2023-08-29T09:17:12.946Z,6.63
2023-08-29T09:19:48.430Z,7.05
2023-08-29T09:22:18.091Z,4.97
2023-08-29T09:24:50.112Z,5.85
2023-08-29T09:27:20.675Z,5.95
2023-08-29T09:29:49.882Z,8.15
2023-08-29T09:32:21.772Z,7.78
2023-08-29T09:35:04.788Z,7.10
2023-08-29T09:38:05.958Z,8.82
2023-08-29T09:40:49.978Z,7.88
2023-08-29T09:43:20.068Z,7.65
2023-08-29T09:45:52.063Z,7.25
2023-08-29T09:48:23.055Z,7.18
2023-08-29T09:50:51.622Z,5.53
2023-08-29T09:53:20.645Z,7.43
2023-08-29T09:55:50.491Z,6.72
2023-08-29T09:58:18.994Z,5.00
2023-08-29T10:00:47.655Z,5.82
2023-08-29T10:03:16.022Z,7.38
2023-08-29T10:05:45.332Z,5.93
2023-08-29T10:08:12.592Z,7.53
2023-08-29T10:10:46.396Z,8.10
2023-08-29T10:13:14.506Z,9.00
2023-08-29T10:15:45.446Z,11.50
2023-08-29T10:18:13.910Z,9.77
2023-08-29T10:20:44.735Z,7.32
2023-08-29T10:23:13.006Z,5.93
2023-08-29T10:25:41.159Z,3.78
2023-08-29T10:28:13.871Z,5.65
2023-08-29T10:30:44.178Z,6.60
2023-08-29T10:33:13.110Z,7.05
2023-08-29T10:35:40.866Z,6.82
2023-08-29T10:38:11.358Z,4.70
2023-08-29T10:40:40.848Z,4.38
2023-08-29T10:43:24.751Z,4.45
2023-08-29T10:45:58.811Z,3.83
2023-08-29T10:48:50.577Z,4.85
2023-08-29T10:51:20.547Z,4.85
2023-08-29T10:54:06.922Z,4.18
2023-08-29T10:56:42.009Z,5.47
2023-08-29T10:59:28.639Z,5.00
2023-08-29T11:02:15.855Z,4.65
2023-08-29T11:04:55.793Z,5.38
2023-08-29T11:07:26.547Z,6.85
2023-08-29T11:10:12.960Z,6.85
2023-08-29T11:13:01.406Z,7.70
2023-08-29T11:15:47.981Z,8.13
2023-08-29T11:18:34.794Z,6.95
2023-08-29T11:21:07.007Z,7.82
2023-08-29T11:23:44.657Z,4.95
2023-08-29T11:26:12.248Z,4.80
2023-08-29T11:28:40.726Z,4.82
2023-08-29T11:31:08.346Z,4.60
2023-08-29T11:33:36.590Z,4.72
2023-08-29T11:36:05.368Z,4.22
2023-08-29T11:38:33.892Z,5.45
2023-08-29T11:41:10.931Z,6.47
2023-08-29T11:44:52.168Z,5.85
2023-08-29T11:46:37.072Z,6.70
2023-08-29T11:49:22.730Z,5.80
2023-08-29T11:51:50.065Z,6.22
2023-08-29T11:54:36.100Z,7.03
2023-08-29T11:57:07.397Z,7.03
2023-08-29T11:59:36.733Z,7.15
2023-08-29T12:02:04.028Z,5.43
2023-08-29T12:04:31.316Z,5.28
2023-08-29T12:07:18.042Z,6.63
2023-08-29T12:09:46.343Z,6.95
2023-08-29T12:12:34.096Z,5.22
2023-08-29T12:15:01.452Z,6.87
2023-08-29T12:17:42.205Z,6.32
2023-08-29T12:20:15.767Z,6.15
2023-08-29T12:22:43.888Z,5.18
2023-08-29T12:25:11.172Z,5.83
2023-08-29T12:27:38.652Z,5.13
2023-08-29T12:30:07.418Z,7.90
2023-08-29T12:32:35.561Z,7.30
2023-08-29T12:35:02.952Z,8.40
2023-08-29T12:37:30.455Z,8.68
2023-08-29T12:39:57.745Z,8.27
2023-08-29T12:42:25.184Z,10.20
2023-08-29T12:44:52.731Z,18.65
2023-08-29T12:47:20.961Z,22.15
2023-08-29T12:49:50.062Z,25.90
2023-08-29T12:52:17.387Z,17.73
2023-08-29T12:54:45.573Z,11.82
2023-08-29T12:57:14.311Z,15.00
2023-08-29T12:59:43.218Z,7.05
2023-08-29T13:04:38.532Z,9.35
2023-08-29T13:07:06.407Z,10.27
2023-08-29T13:09:38.092Z,9.90
2023-08-29T13:12:06.632Z,10.27
2023-08-29T13:14:38.665Z,7.28
2023-08-29T13:17:06.904Z,5.80
2023-08-29T13:19:34.786Z,7.07
2023-08-29T13:22:07.352Z,6.43
2023-08-29T13:24:35.663Z,6.03
2023-08-29T13:27:03.113Z,8.37
2023-08-29T13:29:31.624Z,10.10
2023-08-29T13:32:00.053Z,7.25
2023-08-29T13:34:27.613Z,7.25
2023-08-29T13:36:55.179Z,6.55
2023-08-29T13:39:22.685Z,7.72
2023-08-29T13:41:50.048Z,6.05
2023-08-29T13:44:17.818Z,8.13
2023-08-29T13:46:46.862Z,7.68
2023-08-29T13:49:14.475Z,5.45
2023-08-29T13:51:41.939Z,4.25
2023-08-29T13:54:09.332Z,10.07
2023-08-29T13:56:37.331Z,5.75
2023-08-29T13:59:05.048Z,8.40
2023-08-29T14:01:32.775Z,6.90
2023-08-29T14:04:00.285Z,6.95
2023-08-29T14:06:27.882Z,5.45
2023-08-29T14:08:55.211Z,8.73
2023-08-29T14:11:22.503Z,8.60
2023-08-29T14:13:49.803Z,6.45
2023-08-29T14:16:17.260Z,8.52
2023-08-29T14:18:46.995Z,7.88
2023-08-29T14:21:14.343Z,7.22
2023-08-29T14:23:41.657Z,6.85
2023-08-29T14:26:12.606Z,6.93
2023-08-29T14:28:40.037Z,5.07
2023-08-29T14:31:07.552Z,4.43
2023-08-29T14:33:34.866Z,5.13
2023-08-29T14:36:04.889Z,4.03
2023-08-29T14:38:32.547Z,5.20
2023-08-29T14:41:15.020Z,6.57
2023-08-29T14:43:43.079Z,3.72
2023-08-29T14:46:10.420Z,5.82
2023-08-29T14:48:40.035Z,4.43
2023-08-29T14:51:07.475Z,8.63
2023-08-29T14:53:35.094Z,7.40
2023-08-29T14:56:07.220Z,5.13
2023-08-29T14:58:41.607Z,7.18
2023-08-29T15:01:18.023Z,6.00
2023-08-29T15:03:48.820Z,4.13
2023-08-29T15:06:25.709Z,3.53
2023-08-29T15:09:00.227Z,4.63
2023-08-29T15:11:29.547Z,4.32
2023-08-29T15:13:57.385Z,5.50
2023-08-29T15:16:26.303Z,3.50
2023-08-29T15:18:54.921Z,4.47
2023-08-29T15:21:26.918Z,5.13
2023-08-29T15:24:19.569Z,3.28
2023-08-29T15:27:00.308Z,3.13
2023-08-29T15:29:28.996Z,3.83
2023-08-29T15:31:57.811Z,4.45
2023-08-29T15:34:25.710Z,4.95
2023-08-29T15:36:52.993Z,5.45
2023-08-29T15:39:20.277Z,5.07
2023-08-29T15:41:47.602Z,5.22
2023-08-29T15:44:14.890Z,4.60
2023-08-29T15:46:42.208Z,5.75
2023-08-29T15:49:10.666Z,6.50
2023-08-29T15:51:37.963Z,6.05
2023-08-29T15:54:05.412Z,5.43
2023-08-29T15:56:32.740Z,3.13
2023-08-29T15:59:00.300Z,4.93
2023-08-29T16:01:28.807Z,5.30
2023-08-29T16:03:56.532Z,4.18
2023-08-29T16:06:23.944Z,5.15
2023-08-29T16:08:51.285Z,5.53
2023-08-29T16:11:20.600Z,5.45
2023-08-29T16:13:48.058Z,4.45
2023-08-29T16:16:15.454Z,4.88
2023-08-29T16:18:42.786Z,4.50
2023-08-29T16:21:10.071Z,4.43
2023-08-29T16:23:37.383Z,3.90
2023-08-29T16:26:17.779Z,3.90
2023-08-29T16:28:45.602Z,5.53
2023-08-29T16:31:12.893Z,5.30
2023-08-29T16:33:40.227Z,4.88
2023-08-29T16:36:08.212Z,6.57
2023-08-29T16:38:38.358Z,4.75
2023-08-29T16:41:05.814Z,8.50
2023-08-29T16:43:33.208Z,5.38
2023-08-29T16:46:00.606Z,5.72
2023-08-29T16:48:29.587Z,4.10
2023-08-29T16:50:57.144Z,4.93
2023-08-29T16:53:25.212Z,5.22
2023-08-29T16:55:52.546Z,4.70
2023-08-29T16:58:19.968Z,3.30
2023-08-29T17:00:48.285Z,7.85
2023-08-29T17:03:15.800Z,4.18
2023-08-29T17:05:43.327Z,6.78
2023-08-29T17:08:11.051Z,6.82
2023-08-29T17:10:38.614Z,6.35
2023-08-29T17:13:05.966Z,7.05
2023-08-29T17:15:33.226Z,4.80
2023-08-29T17:18:00.700Z,5.75
2023-08-29T17:20:28.061Z,4.82
2023-08-29T17:22:55.349Z,7.75
2023-08-29T17:25:24.589Z,5.25
2023-08-29T17:27:52.532Z,5.82
2023-08-29T17:30:21.806Z,6.43
2023-08-29T17:32:49.085Z,7.70
2023-08-29T17:35:16.431Z,6.82
2023-08-29T17:37:43.856Z,6.15
2023-08-29T17:40:11.956Z,5.88
2023-08-29T17:42:40.552Z,5.83
2023-08-29T17:45:09.521Z,6.65
2023-08-29T17:50:05.054Z,7.07
2023-08-29T17:52:32.391Z,6.28
2023-08-29T17:55:02.061Z,6.70
2023-08-29T17:57:30.653Z,7.78
2023-08-29T17:59:59.666Z,8.07
2023-08-29T18:02:27.234Z,7.03
2023-08-29T18:04:54.706Z,6.78
2023-08-29T18:07:22.109Z,7.80
2023-08-29T18:10:09.825Z,7.07
2023-08-29T18:12:38.629Z,6.90
2023-08-29T18:15:06.858Z,7.03
2023-08-29T18:17:34.326Z,7.93
2023-08-29T18:20:01.697Z,7.45
2023-08-29T18:22:30.711Z,8.65
2023-08-29T18:27:27.169Z,7.38
2023-08-29T18:29:54.620Z,7.20
2023-08-29T18:32:22.239Z,8.65
2023-08-29T18:34:52.583Z,6.93
2023-08-29T18:37:20.544Z,8.90
2023-08-29T18:39:48.230Z,7.63
2023-08-29T18:42:15.626Z,8.23
2023-08-29T18:44:42.939Z,10.55
2023-08-29T18:47:10.280Z,9.52
2023-08-29T18:49:37.835Z,8.18
2023-08-29T18:52:05.517Z,8.80
2023-08-29T18:54:34.605Z,11.13
2023-08-29T18:57:02.059Z,9.10
2023-08-29T18:59:29.431Z,8.43
2023-08-29T19:01:57.699Z,8.25
2023-08-29T19:04:25.014Z,8.17
2023-08-29T19:06:52.328Z,8.95
2023-08-29T19:09:19.647Z,8.68
2023-08-29T19:11:48.040Z,9.20
2023-08-29T19:14:15.505Z,12.00
2023-08-29T19:16:42.795Z,7.72
2023-08-29T19:19:13.197Z,9.02
2023-08-29T19:21:40.719Z,9.77
2023-08-29T19:24:09.193Z,10.32
2023-08-29T19:26:40.385Z,9.00
2023-08-29T19:29:07.814Z,11.23
2023-08-29T19:31:35.087Z,9.98
2023-08-29T19:34:02.397Z,10.25
2023-08-29T19:36:29.720Z,11.07
2023-08-29T19:39:08.531Z,12.73
2023-08-29T19:41:43.967Z,10.00
2023-08-29T19:44:11.445Z,14.80
2023-08-29T19:46:38.849Z,12.27
2023-08-29T19:49:06.196Z,11.45
2023-08-29T19:51:33.489Z,11.38
2023-08-29T19:54:00.801Z,11.23
2023-08-29T19:56:28.197Z,11.98
2023-08-29T19:58:55.465Z,10.98
2023-08-29T20:01:24.294Z,11.80
2023-08-29T20:03:51.608Z,11.32
2023-08-29T20:06:18.920Z,14.00
2023-08-29T20:08:46.268Z,14.48
2023-08-29T20:11:13.796Z,12.45
2023-08-29T20:13:41.086Z,14.30
2023-08-29T20:16:08.490Z,11.50
2023-08-29T20:18:35.929Z,12.95
2023-08-29T20:21:05.032Z,10.20
2023-08-29T20:26:00.079Z,13.00
2023-08-29T20:28:27.470Z,10.00
2023-08-29T20:30:54.996Z,9.00
2023-08-29T20:33:22.361Z,11.80
2023-08-29T20:35:49.759Z,9.73
2023-08-29T20:38:17.083Z,11.63
2023-08-29T20:40:44.456Z,9.80
2023-08-29T20:43:11.722Z,10.05
2023-08-29T20:45:39.052Z,9.80
2023-08-29T20:48:06.874Z,9.00
2023-08-29T20:50:34.713Z,10.17
2023-08-29T20:53:02.024Z,10.35
2023-08-29T20:55:31.521Z,12.52
2023-08-29T20:58:00.779Z,10.27
2023-08-29T21:00:28.055Z,11.27
2023-08-29T21:02:56.239Z,12.43
2023-08-29T21:05:23.683Z,10.87
2023-08-29T21:07:50.972Z,20.25
2023-08-29T21:10:18.321Z,13.07
2023-08-29T21:12:45.605Z,11.10
2023-08-29T21:15:13.012Z,10.63
2023-08-29T21:17:40.313Z,9.95
2023-08-29T21:20:08.757Z,10.95
2023-08-29T21:22:36.077Z,9.25
2023-08-29T21:25:03.522Z,10.18
2023-08-29T21:27:30.915Z,9.88
2023-08-29T21:29:58.362Z,9.48
2023-08-29T21:32:25.740Z,10.55
2023-08-29T21:34:53.079Z,10.63
2023-08-29T21:37:20.457Z,11.98
2023-08-29T21:39:47.779Z,8.68
2023-08-29T21:42:15.085Z,11.65
2023-08-29T21:44:42.372Z,12.07
2023-08-29T21:47:09.706Z,12.02
2023-08-29T21:49:37.105Z,8.93
2023-08-29T21:52:04.654Z,10.02
2023-08-29T21:54:31.960Z,9.50
2023-08-29T21:56:59.334Z,11.35
2023-08-29T21:59:26.634Z,9.77
2023-08-29T22:01:54.537Z,10.55
2023-08-29T22:04:21.841Z,9.93
2023-08-29T22:06:49.088Z,10.80
2023-08-29T22:09:16.530Z,14.32
2023-08-29T22:11:43.828Z,11.15
2023-08-29T22:14:11.121Z,10.88
2023-08-29T22:16:38.454Z,11.68
2023-08-29T22:19:05.811Z,10.48
2023-08-29T22:21:33.289Z,9.60
2023-08-29T22:24:00.661Z,11.07
2023-08-29T22:26:27.919Z,11.13
2023-08-29T22:28:55.183Z,13.43
2023-08-29T22:31:22.611Z,9.68
2023-08-29T22:33:50.219Z,12.85
2023-08-29T22:36:17.885Z,11.23
2023-08-29T22:38:45.218Z,10.98
2023-08-29T22:41:24.785Z,11.98
2023-08-29T22:43:56.828Z,11.13
2023-08-29T22:46:24.383Z,11.98
2023-08-29T22:48:51.689Z,11.38
2023-08-29T22:51:18.978Z,10.90
2023-08-29T22:53:47.001Z,10.50
2023-08-29T22:56:14.363Z,12.82
2023-08-29T22:58:41.609Z,12.82
2023-08-29T23:01:09.341Z,12.25
2023-08-29T23:03:36.988Z,10.30
2023-08-29T23:06:04.387Z,12.57
2023-08-29T23:08:31.785Z,11.68
2023-08-29T23:10:59.559Z,11.38
2023-08-29T23:13:26.895Z,10.55
2023-08-29T23:15:55.777Z,13.63
2023-08-29T23:18:23.354Z,14.35
2023-08-29T23:20:52.434Z,11.27
2023-08-29T23:25:53.092Z,11.50
2023-08-29T23:28:20.479Z,11.77
2023-08-29T23:30:50.818Z,12.40
2023-08-29T23:33:18.632Z,13.63
2023-08-29T23:35:45.960Z,13.23
2023-08-29T23:38:13.536Z,12.43
2023-08-29T23:40:40.842Z,14.13
2023-08-29T23:43:08.742Z,15.32
2023-08-29T23:45:36.507Z,12.93
2023-08-29T23:48:04.122Z,13.95
2023-08-29T23:50:31.483Z,13.35
2023-08-29T23:53:00.159Z,12.68
2023-08-29T23:55:27.567Z,14.25
2023-08-29T23:57:55.094Z,15.85
